Time;durP1;ratioP1;P1;durP2;ratioP2;P2;SDS_P1;SDS_P2;PMS_P1;PMS_P2;Temp;Humidity;BMP_temperature;BMP_pressure;BME280_temperature;BME280_humidity;BME280_pressure;Samples;Min_cycle;Max_cycle;Signal;HPM_P1;HPM_P2
2022/08/29 00:02:03;;;;;;;5.57;2.80;;;13.90;93.50;;;;;;5115303;28;20555;-60
2022/08/29 00:04:31;;;;;;;5.80;3.20;;;13.90;93.70;;;;;;5115027;28;20536;-60
2022/08/29 00:06:58;;;;;;;9.10;3.17;;;13.90;93.80;;;;;;5114096;28;20445;-60
2022/08/29 00:09:27;;;;;;;9.10;3.33;;;13.90;93.80;;;;;;5114399;28;20544;-59
2022/08/29 00:11:54;;;;;;;7.33;3.37;;;13.80;93.80;;;;;;5113981;28;20492;-59
2022/08/29 00:14:22;;;;;;;5.70;3.43;;;13.80;94.00;;;;;;5114362;28;20480;-60
2022/08/29 00:16:49;;;;;;;4.43;3.23;;;13.80;94.10;;;;;;5114446;28;20999;-59
2022/08/29 00:19:16;;;;;;;5.70;3.40;;;13.80;94.20;;;;;;5114135;28;20534;-59
2022/08/29 00:21:43;;;;;;;7.30;3.67;;;13.80;94.40;;;;;;5114243;28;20466;-60
2022/08/29 00:24:10;;;;;;;7.60;4.00;;;13.80;94.40;;;;;;5114739;28;20509;-59
2022/08/29 00:26:39;;;;;;;5.50;3.33;;;13.70;94.50;;;;;;5120238;28;20433;-59
2022/08/29 00:29:06;;;;;;;6.63;3.40;;;13.70;94.60;;;;;;5121305;28;20528;-60
2022/08/29 00:31:33;;;;;;;12.67;4.00;;;13.70;94.90;;;;;;5121171;28;21002;-60
2022/08/29 00:34:01;;;;;;;12.03;3.03;;;13.70;94.80;;;;;;5121634;28;20523;-60
2022/08/29 00:36:28;;;;;;;8.50;3.10;;;13.70;95.00;;;;;;5120681;28;20433;-59
2022/08/29 00:38:55;;;;;;;4.00;2.70;;;13.60;95.10;;;;;;5119683;28;20536;-60
2022/08/29 00:41:22;;;;;;;6.90;3.17;;;13.60;95.20;;;;;;5140666;22;21703;-58
2022/08/29 00:43:51;;;;;;;9.20;3.80;;;13.50;95.40;;;;;;5117711;28;20532;-58
2022/08/29 00:46:45;;;;;;;6.00;3.30;;;13.50;95.60;;;;;;5117164;28;20532;-57
2022/08/29 00:49:24;;;;;;;8.40;3.37;;;13.50;95.80;;;;;;5118031;28;20433;-57
2022/08/29 00:51:52;;;;;;;10.53;3.47;;;13.50;95.80;;;;;;5117320;28;20552;-58
2022/08/29 00:54:20;;;;;;;6.20;2.80;;;13.50;95.80;;;;;;5117162;28;20441;-56
2022/08/29 00:56:47;;;;;;;6.80;4.00;;;13.40;96.00;;;;;;5117349;28;20441;-58
2022/08/29 00:59:20;;;;;;;8.20;3.43;;;13.40;96.10;;;;;;5117055;28;20457;-57
2022/08/29 01:01:47;;;;;;;5.23;2.77;;;13.40;96.20;;;;;;5117112;28;20556;-57
2022/08/29 01:04:15;;;;;;;9.37;3.40;;;13.40;96.30;;;;;;5118133;28;20445;-57
2022/08/29 01:06:43;;;;;;;4.70;3.17;;;13.40;96.50;;;;;;5117212;28;20828;-57
2022/08/29 01:09:11;;;;;;;13.90;3.43;;;13.30;96.60;;;;;;5117005;28;20537;-57
2022/08/29 01:14:26;;;;;;;4.77;3.60;;;13.30;96.90;;;;;;5117421;28;20394;-58
2022/08/29 01:16:57;;;;;;;7.03;3.50;;;13.20;96.90;;;;;;5116963;28;20441;-58
2022/08/29 01:19:39;;;;;;;6.40;3.13;;;13.20;97.10;;;;;;5117113;28;20789;-56
2022/08/29 01:22:15;;;;;;;6.20;3.27;;;13.10;97.30;;;;;;5116822;28;20573;-57
2022/08/29 01:24:49;;;;;;;9.47;3.27;;;13.20;97.40;;;;;;5116742;28;20865;-57
2022/08/29 01:27:19;;;;;;;6.13;3.63;;;13.10;97.60;;;;;;5116612;28;20429;-57
2022/08/29 01:29:47;;;;;;;6.63;3.37;;;13.10;97.50;;;;;;5117723;28;20487;-57
2022/08/29 01:32:15;;;;;;;6.37;3.27;;;13.10;97.50;;;;;;5116598;28;20556;-57
2022/08/29 01:34:42;;;;;;;9.40;4.93;;;13.10;97.60;;;;;;5116528;28;20519;-57
2022/08/29 01:37:13;;;;;;;10.73;3.67;;;13.10;97.70;;;;;;5115513;28;20536;-57
2022/08/29 01:39:43;;;;;;;7.13;3.43;;;13.00;97.80;;;;;;5116386;28;20484;-58
2022/08/29 01:42:14;;;;;;;8.87;3.20;;;13.00;97.90;;;;;;5116151;28;20501;-57
2022/08/29 01:44:42;;;;;;;6.87;3.57;;;13.00;98.00;;;;;;5116548;28;20461;-57
2022/08/29 01:47:10;;;;;;;7.67;4.27;;;13.00;98.00;;;;;;5116506;28;20879;-57
2022/08/29 01:49:38;;;;;;;9.93;3.87;;;;;;;;;;5116204;28;20924;-58
2022/08/29 01:52:06;;;;;;;6.80;3.43;;;;;;;;;;5116165;28;20469;-57
2022/08/29 01:54:34;;;;;;;7.23;3.60;;;;;;;;;;5116202;28;20449;-57
2022/08/29 01:57:02;;;;;;;5.83;3.83;;;;;;;;;;5116237;28;20481;-57
2022/08/29 01:59:32;;;;;;;6.50;3.30;;;;;;;;;;5116303;28;20532;-57
2022/08/29 02:02:03;;;;;;;8.63;2.80;;;;;;;;;;5115976;28;20557;-58
2022/08/29 02:04:31;;;;;;;8.77;3.13;;;;;;;;;;5116055;28;20495;-58
2022/08/29 02:06:58;;;;;;;8.00;3.60;;;;;;;;;;5116313;28;21028;-57
2022/08/29 02:09:26;;;;;;;5.13;3.40;;;;;;;;;;5116009;28;20948;-57
2022/08/29 02:11:53;;;;;;;6.40;3.50;;;;;;;;;;5115749;28;20540;-58
2022/08/29 02:14:22;;;;;;;6.70;3.60;;;;;;;;;;5115838;28;20455;-57
2022/08/29 02:16:51;;;;;;;3.60;3.20;;;;;;;;;;5115789;28;20487;-58
2022/08/29 02:19:19;;;;;;;12.33;3.70;;;;;;;;;;5115527;28;20548;-57
2022/08/29 02:21:47;;;;;;;4.20;3.33;;;;;;;;;;5115299;28;20964;-57
2022/08/29 02:24:16;;;;;;;6.73;3.30;;;13.00;98.00;;;;;;5115659;28;20484;-57
2022/08/29 02:26:43;;;;;;;7.00;3.30;;;13.20;98.70;;;;;;5115643;28;20816;-57
2022/08/29 02:29:11;;;;;;;7.27;3.50;;;13.20;98.60;;;;;;5115352;28;20437;-58
2022/08/29 02:31:39;;;;;;;4.90;3.10;;;13.20;98.60;;;;;;5115433;28;20522;-57
2022/08/29 02:34:08;;;;;;;6.70;3.60;;;13.30;98.60;;;;;;5115361;28;20782;-56
2022/08/29 02:36:36;;;;;;;7.47;2.77;;;13.30;98.50;;;;;;5115271;28;20809;-58
2022/08/29 02:39:05;;;;;;;7.50;3.90;;;13.40;98.50;;;;;;5115189;28;20447;-59
2022/08/29 02:41:33;;;;;;;6.10;3.77;;;13.40;98.40;;;;;;5114672;28;20556;-59
2022/08/29 02:44:00;;;;;;;5.80;3.90;;;13.50;98.40;;;;;;5115379;28;20440;-57
2022/08/29 02:46:27;;;;;;;5.33;3.00;;;13.50;98.30;;;;;;5116005;28;20456;-57
2022/08/29 02:48:54;;;;;;;8.23;3.30;;;13.50;98.20;;;;;;5113939;28;20544;-58
2022/08/29 02:51:26;;;;;;;5.80;3.57;;;13.60;98.30;;;;;;5115218;28;20564;-59
2022/08/29 02:53:54;;;;;;;6.60;3.13;;;13.60;98.20;;;;;;5115219;28;20448;-58
2022/08/29 02:56:22;;;;;;;4.57;2.70;;;13.70;98.10;;;;;;5115043;28;20591;-57
2022/08/29 02:58:49;;;;;;;5.87;2.93;;;13.70;98.00;;;;;;5116826;28;20450;-57
2022/08/29 03:01:19;;;;;;;5.87;3.17;;;13.80;98.00;;;;;;5115320;28;20441;-58
2022/08/29 03:03:46;;;;;;;10.60;3.70;;;13.80;97.80;;;;;;5114996;28;20476;-58
2022/08/29 03:06:13;;;;;;;5.47;3.00;;;13.80;97.70;;;;;;5114884;28;20796;-56
2022/08/29 03:08:42;;;;;;;9.27;3.50;;;13.80;97.70;;;;;;5114799;28;20467;-58
2022/08/29 03:11:10;;;;;;;4.90;3.17;;;13.80;97.60;;;;;;5114273;28;20441;-57
2022/08/29 03:13:37;;;;;;;3.70;2.83;;;13.90;97.70;;;;;;5114388;28;20540;-59
2022/08/29 03:16:05;;;;;;;4.67;3.13;;;13.90;97.60;;;;;;5114644;28;20477;-57
2022/08/29 03:18:32;;;;;;;8.70;3.73;;;13.90;97.60;;;;;;5114601;28;20445;-56
2022/08/29 03:20:59;;;;;;;7.57;3.00;;;13.90;97.60;;;;;;5114404;28;20444;-58
2022/08/29 03:23:27;;;;;;;7.93;3.13;;;13.90;97.50;;;;;;5114345;28;20524;-57
2022/08/29 03:25:55;;;;;;;8.07;2.80;;;14.00;97.40;;;;;;5114498;28;20941;-58
2022/08/29 03:28:22;;;;;;;7.33;3.00;;;14.00;97.30;;;;;;5115232;28;20445;-57
2022/08/29 03:30:50;;;;;;;6.50;2.87;;;14.00;97.30;;;;;;5114676;28;21049;-58
2022/08/29 03:33:18;;;;;;;7.20;2.87;;;14.00;97.30;;;;;;5114822;28;20465;-58
2022/08/29 03:35:45;;;;;;;9.33;3.73;;;14.00;97.30;;;;;;5114705;28;20483;-58
2022/08/29 03:38:13;;;;;;;7.90;3.00;;;14.00;97.20;;;;;;5114386;28;20536;-58
2022/08/29 03:40:41;;;;;;;6.67;2.90;;;14.00;97.20;;;;;;5114599;28;20464;-57
2022/08/29 03:43:10;;;;;;;11.33;3.07;;;14.00;97.10;;;;;;5114092;28;20480;-58
2022/08/29 03:45:37;;;;;;;6.90;2.87;;;14.10;97.20;;;;;;5114394;28;20437;-56
2022/08/29 03:48:05;;;;;;;6.27;3.40;;;14.10;97.20;;;;;;5114833;28;20529;-57
2022/08/29 03:50:32;;;;;;;5.53;3.50;;;14.10;97.10;;;;;;5114142;28;20544;-57
2022/08/29 03:53:00;;;;;;;8.33;3.57;;;14.10;97.20;;;;;;5113586;28;20939;-58
2022/08/29 03:55:27;;;;;;;5.13;2.90;;;14.10;97.10;;;;;;5113802;28;20488;-56
2022/08/29 03:57:55;;;;;;;7.57;2.83;;;14.10;97.10;;;;;;5113638;28;20448;-58
2022/08/29 04:00:24;;;;;;;6.80;3.00;;;14.10;97.10;;;;;;5113770;28;21000;-59
2022/08/29 04:02:52;;;;;;;7.83;2.90;;;14.20;97.20;;;;;;5114239;28;20457;-58
2022/08/29 04:05:20;;;;;;;6.60;3.07;;;14.20;97.20;;;;;;5114887;28;20441;-58
2022/08/29 04:10:12;;;;;;;6.10;3.23;;;14.10;97.10;;;;;;5133981;27;20550;-59
2022/08/29 04:13:02;;;;;;;11.27;3.60;;;14.20;97.50;;;;;;5139903;28;21046;-59
2022/08/29 04:15:32;;;;;;;7.77;3.80;;;14.20;97.40;;;;;;5140692;27;20429;-58
2022/08/29 04:18:02;;;;;;;18.87;3.93;;;14.30;97.40;;;;;;5134647;28;20445;-59
2022/08/29 04:20:33;;;;;;;5.37;4.00;;;14.30;97.40;;;;;;5133698;27;20952;-59
2022/08/29 04:23:00;;;;;;;7.67;3.20;;;14.30;97.30;;;;;;5132160;28;20492;-60
2022/08/29 04:25:35;;;;;;;6.10;3.23;;;14.30;97.30;;;;;;5133443;27;20448;-59
2022/08/29 04:28:05;;;;;;;5.70;3.10;;;14.40;97.30;;;;;;5137634;28;20450;-60
2022/08/29 04:30:32;;;;;;;4.87;3.10;;;14.40;97.40;;;;;;5138905;27;20440;-60
2022/08/29 04:33:00;;;;;;;7.00;3.13;;;14.40;97.30;;;;;;5137944;27;20492;-60
2022/08/29 04:35:27;;;;;;;9.23;3.10;;;14.40;97.30;;;;;;5135947;27;20441;-57
2022/08/29 04:37:55;;;;;;;9.97;3.23;;;14.40;97.40;;;;;;5132651;28;20477;-59
2022/08/29 04:40:23;;;;;;;5.03;3.37;;;14.40;97.50;;;;;;5124751;28;20525;-59
2022/08/29 04:42:52;;;;;;;7.07;3.20;;;14.40;97.70;;;;;;5122302;28;20457;-59
2022/08/29 04:45:22;;;;;;;6.87;3.07;;;14.40;97.80;;;;;;5123351;28;20528;-59
2022/08/29 04:47:49;;;;;;;6.13;3.20;;;14.40;97.90;;;;;;5131841;27;20535;-61
2022/08/29 04:50:20;;;;;;;10.00;3.70;;;14.40;98.00;;;;;;5113953;28;20481;-60
2022/08/29 04:52:48;;;;;;;8.70;3.60;;;14.50;98.00;;;;;;5114160;28;20480;-60
2022/08/29 04:55:16;;;;;;;5.53;3.53;;;14.50;98.10;;;;;;5122991;28;21003;-60
2022/08/29 04:57:44;;;;;;;10.93;4.37;;;14.50;98.10;;;;;;5121534;28;20469;-59
2022/08/29 05:00:16;;;;;;;9.77;3.57;;;14.50;98.10;;;;;;5123250;28;20437;-60
2022/08/29 05:02:44;;;;;;;7.23;3.07;;;14.60;98.10;;;;;;5112403;28;20465;-58
2022/08/29 05:05:14;;;;;;;7.60;3.60;;;14.60;98.10;;;;;;5120638;28;20536;-58
2022/08/29 05:07:42;;;;;;;9.73;2.87;;;14.70;98.00;;;;;;5119852;28;20515;-60
2022/08/29 05:10:12;;;;;;;6.87;2.63;;;14.70;97.90;;;;;;5131178;27;20475;-59
2022/08/29 05:12:40;;;;;;;8.30;3.17;;;14.80;97.80;;;;;;5130440;27;20461;-59
2022/08/29 05:15:08;;;;;;;5.00;3.27;;;14.80;97.80;;;;;;5117388;27;20528;-60
2022/08/29 05:17:37;;;;;;;10.73;3.57;;;14.80;97.80;;;;;;5110608;28;20805;-59
2022/08/29 05:20:06;;;;;;;4.03;2.80;;;14.90;97.80;;;;;;5108773;28;20457;-59
2022/08/29 05:22:33;;;;;;;9.43;3.13;;;14.90;97.70;;;;;;5114917;28;20469;-60
2022/08/29 05:25:01;;;;;;;8.83;2.83;;;15.00;97.70;;;;;;5102783;28;20538;-59
2022/08/29 05:27:29;;;;;;;9.10;3.00;;;15.00;97.50;;;;;;5101906;28;20470;-58
2022/08/29 05:29:57;;;;;;;7.10;3.40;;;15.10;97.40;;;;;;5098678;28;20484;-60
2022/08/29 05:32:24;;;;;;;8.40;3.40;;;15.20;97.30;;;;;;5096932;28;20466;-60
2022/08/29 05:34:54;;;;;;;6.03;3.10;;;15.20;97.20;;;;;;5097057;28;20900;-59
2022/08/29 05:37:22;;;;;;;8.80;2.77;;;15.20;97.20;;;;;;5096673;28;21002;-59
2022/08/29 05:39:50;;;;;;;6.07;2.97;;;15.20;97.30;;;;;;5097679;28;20480;-60
2022/08/29 05:42:20;;;;;;;8.77;3.60;;;15.30;97.30;;;;;;5114803;28;20550;-59
2022/08/29 05:44:48;;;;;;;12.60;3.10;;;15.40;97.30;;;;;;5098387;28;20426;-60
2022/08/29 05:47:19;;;;;;;12.67;3.70;;;15.50;97.00;;;;;;5097983;28;20481;-59
2022/08/29 05:49:48;;;;;;;6.40;3.03;;;15.60;96.90;;;;;;5097843;28;20913;-59
2022/08/29 05:52:19;;;;;;;7.83;3.27;;;15.60;96.80;;;;;;5107395;28;20552;-58
2022/08/29 05:54:46;;;;;;;7.90;3.67;;;15.70;96.70;;;;;;5117742;28;20525;-60
2022/08/29 05:57:17;;;;;;;8.83;3.00;;;15.80;96.50;;;;;;5117459;28;21000;-60
2022/08/29 05:59:44;;;;;;;9.23;2.80;;;15.90;96.40;;;;;;5118674;28;20517;-58
2022/08/29 06:02:12;;;;;;;5.00;2.97;;;15.90;96.30;;;;;;5118040;28;20552;-58
2022/08/29 06:04:39;;;;;;;5.00;2.57;;;15.90;96.50;;;;;;5119707;28;20858;-57
2022/08/29 06:07:08;;;;;;;10.00;3.23;;;16.00;96.20;;;;;;5118150;28;20937;-58
2022/08/29 06:09:39;;;;;;;5.27;2.90;;;16.00;96.10;;;;;;5117014;28;20929;-59
2022/08/29 06:12:07;;;;;;;6.87;2.93;;;16.00;96.00;;;;;;5116486;28;20483;-59
2022/08/29 06:14:35;;;;;;;4.80;3.30;;;15.90;96.00;;;;;;5116602;28;20451;-57
2022/08/29 06:17:03;;;;;;;8.10;2.93;;;15.90;96.20;;;;;;5115938;28;20532;-58
2022/08/29 06:19:33;;;;;;;8.00;3.57;;;16.00;96.30;;;;;;5116614;28;20509;-58
2022/08/29 06:22:02;;;;;;;10.13;3.43;;;16.10;96.30;;;;;;5115635;28;20493;-58
2022/08/29 06:24:29;;;;;;;4.43;2.53;;;16.20;96.10;;;;;;5116224;28;20537;-58
2022/08/29 06:26:58;;;;;;;5.53;2.77;;;16.30;96.00;;;;;;5116014;28;20762;-59
2022/08/29 06:29:26;;;;;;;7.40;3.27;;;16.30;95.90;;;;;;5115841;28;20565;-59
2022/08/29 06:31:55;;;;;;;6.07;3.13;;;16.40;95.90;;;;;;5114226;28;20468;-59
2022/08/29 06:34:23;;;;;;;7.90;3.27;;;16.40;95.80;;;;;;5115055;28;20537;-58
2022/08/29 06:36:51;;;;;;;7.40;3.00;;;16.40;95.80;;;;;;5114450;28;20929;-58
2022/08/29 06:39:18;;;;;;;5.40;3.73;;;16.40;95.90;;;;;;5115215;28;20933;-58
2022/08/29 06:41:46;;;;;;;9.23;3.67;;;16.30;96.10;;;;;;5114243;28;20497;-58
2022/08/29 06:44:15;;;;;;;6.37;2.87;;;16.20;96.30;;;;;;5114872;28;20438;-59
2022/08/29 06:49:20;;;;;;;8.60;4.17;;;16.20;96.60;;;;;;5130722;22;20485;-58
2022/08/29 06:51:51;;;;;;;6.17;2.70;;;16.30;96.80;;;;;;5094074;28;20435;-59
2022/08/29 06:54:20;;;;;;;5.20;2.93;;;16.40;96.70;;;;;;5093867;28;20449;-58
2022/08/29 06:56:48;;;;;;;12.70;4.43;;;16.50;96.80;;;;;;5094112;28;20442;-58
2022/08/29 06:59:17;;;;;;;5.37;2.87;;;16.60;96.70;;;;;;5093333;28;20471;-59
2022/08/29 07:01:45;;;;;;;6.70;3.10;;;16.80;96.50;;;;;;5093247;28;20452;-57
2022/08/29 07:04:13;;;;;;;7.53;3.10;;;17.00;96.10;;;;;;5093224;28;20504;-58
2022/08/29 07:06:40;;;;;;;10.13;3.87;;;17.00;95.80;;;;;;5094087;28;20445;-59
2022/08/29 07:09:08;;;;;;;9.80;3.30;;;17.00;95.90;;;;;;5093904;28;20542;-58
2022/08/29 07:11:38;;;;;;;8.47;3.60;;;17.00;96.10;;;;;;5094101;28;20477;-58
2022/08/29 07:14:05;;;;;;;7.97;3.50;;;17.00;96.30;;;;;;5093980;28;20478;-58
2022/08/29 07:16:35;;;;;;;8.13;4.10;;;17.00;96.20;;;;;;5094029;28;20533;-59
2022/08/29 07:19:03;;;;;;;12.20;3.33;;;17.00;96.30;;;;;;5093368;28;20636;-59
2022/08/29 07:21:30;;;;;;;8.60;4.10;;;16.90;96.40;;;;;;5094077;28;20442;-59
2022/08/29 07:23:58;;;;;;;10.60;5.10;;;17.00;96.60;;;;;;5093357;28;20445;-58
2022/08/29 07:26:28;;;;;;;11.27;4.17;;;17.00;96.60;;;;;;5093500;28;20442;-58
2022/08/29 07:28:57;;;;;;;8.80;4.10;;;17.00;96.60;;;;;;5092924;28;20535;-58
2022/08/29 07:31:24;;;;;;;12.70;4.00;;;17.00;96.60;;;;;;5093433;28;20442;-59
2022/08/29 07:33:53;;;;;;;10.43;5.00;;;17.00;96.60;;;;;;5093331;28;20536;-59
2022/08/29 07:36:20;;;;;;;11.10;4.20;;;17.00;96.70;;;;;;5093219;28;20438;-58
2022/08/29 07:38:47;;;;;;;11.43;4.87;;;16.90;97.00;;;;;;5093180;28;20462;-58
2022/08/29 07:41:15;;;;;;;8.60;4.87;;;16.80;97.30;;;;;;5092905;28;20446;-58
2022/08/29 07:43:43;;;;;;;7.17;4.50;;;16.70;97.80;;;;;;5092486;28;20440;-58
2022/08/29 07:46:12;;;;;;;14.67;4.63;;;16.60;98.60;;;;;;5092614;28;20443;-60
2022/08/29 07:48:40;;;;;;;7.73;5.70;;;16.40;99.10;;;;;;5092591;28;20981;-58
2022/08/29 07:51:10;;;;;;;11.20;5.30;;;16.10;99.90;;;;;;5093334;28;20478;-57
2022/08/29 07:53:38;;;;;;;11.93;5.63;;;15.90;99.90;;;;;;5093033;28;20493;-59
2022/08/29 07:56:06;;;;;;;10.30;5.10;;;15.70;99.90;;;;;;5093261;28;20452;-58
2022/08/29 07:58:34;;;;;;;10.50;4.87;;;15.60;99.90;;;;;;5092817;28;20461;-59
2022/08/29 08:01:02;;;;;;;9.40;5.53;;;15.60;99.90;;;;;;5093560;28;20435;-59
2022/08/29 08:03:30;;;;;;;9.47;7.03;;;15.60;99.90;;;;;;5092855;28;20442;-59
2022/08/29 08:05:57;;;;;;;8.80;4.43;;;15.60;99.90;;;;;;5093025;28;20453;-58
2022/08/29 08:08:26;;;;;;;6.23;4.20;;;15.70;99.90;;;;;;5092574;28;20462;-58
2022/08/29 08:10:54;;;;;;;10.77;5.00;;;15.80;99.90;;;;;;5093230;28;20477;-59
2022/08/29 08:13:22;;;;;;;11.40;5.97;;;15.80;99.90;;;;;;5093371;28;20508;-59
2022/08/29 08:15:49;;;;;;;14.00;6.30;;;15.80;99.90;;;;;;5092791;28;20480;-59
2022/08/29 08:18:16;;;;;;;12.33;5.60;;;15.70;99.90;;;;;;5092636;28;20557;-59
2022/08/29 08:20:47;;;;;;;8.37;4.63;;;15.70;99.90;;;;;;5092988;28;20526;-57
2022/08/29 08:23:15;;;;;;;7.80;4.70;;;15.70;99.90;;;;;;5092997;28;20438;-58
2022/08/29 08:25:44;;;;;;;11.13;5.67;;;15.60;99.90;;;;;;5093157;28;20442;-58
2022/08/29 08:28:14;;;;;;;6.33;4.60;;;15.60;99.90;;;;;;5092794;28;20899;-58
2022/08/29 08:30:41;;;;;;;8.20;4.50;;;15.70;99.90;;;;;;5094722;28;20569;-58
2022/08/29 08:33:09;;;;;;;12.20;5.50;;;15.80;99.90;;;;;;5096057;28;20442;-59
2022/08/29 08:35:38;;;;;;;12.10;5.33;;;16.00;99.90;;;;;;5094482;28;20819;-58
2022/08/29 08:38:08;;;;;;;7.20;5.30;;;16.10;99.90;;;;;;5093291;28;20523;-58
2022/08/29 08:40:42;;;;;;;10.20;6.03;;;16.20;99.90;;;;;;5092672;28;20537;-58
2022/08/29 08:43:13;;;;;;;12.90;4.80;;;16.20;99.90;;;;;;5092791;28;20505;-58
2022/08/29 08:45:41;;;;;;;10.70;5.63;;;16.30;99.90;;;;;;5092246;28;20433;-58
2022/08/29 08:48:14;;;;;;;13.73;6.53;;;16.50;99.90;;;;;;5092077;28;20597;-59
2022/08/29 08:50:49;;;;;;;10.50;5.93;;;16.80;99.90;;;;;;5092580;28;20466;-58
2022/08/29 08:53:19;;;;;;;8.37;4.80;;;17.10;99.90;;;;;;5092003;28;20440;-58
2022/08/29 08:55:49;;;;;;;10.07;5.20;;;17.20;99.90;;;;;;5094544;28;20446;-58
2022/08/29 08:58:28;;;;;;;11.13;5.33;;;17.30;99.90;;;;;;5096208;28;20466;-57
2022/08/29 09:00:59;;;;;;;12.57;6.23;;;17.50;99.90;;;;;;5096111;28;20418;-58
2022/08/29 09:04:03;;;;;;;14.07;8.03;;;17.60;99.90;;;;;;5096092;28;20524;-59
2022/08/29 09:06:53;;;;;;;15.30;7.70;;;17.80;99.90;;;;;;5096180;28;20807;-58
2022/08/29 09:09:31;;;;;;;10.00;6.03;;;17.70;99.90;;;;;;5094146;28;20599;-57
2022/08/29 09:12:08;;;;;;;10.30;5.73;;;17.70;99.90;;;;;;5096074;28;20533;-58
2022/08/29 09:14:52;;;;;;;14.23;7.00;;;17.60;99.90;;;;;;5096041;28;20419;-58
2022/08/29 09:17:24;;;;;;;16.23;6.23;;;17.70;99.90;;;;;;5095925;28;20833;-58
2022/08/29 09:19:52;;;;;;;12.50;6.53;;;17.80;99.90;;;;;;5095936;28;20881;-57
2022/08/29 09:22:26;;;;;;;10.07;5.70;;;17.90;99.90;;;;;;5095626;28;20441;-58
2022/08/29 09:24:57;;;;;;;11.10;6.40;;;18.10;99.90;;;;;;5095959;28;20531;-57
2022/08/29 09:27:27;;;;;;;14.33;6.63;;;18.50;99.90;;;;;;5095577;28;20462;-58
2022/08/29 09:30:02;;;;;;;9.63;6.53;;;18.80;99.90;;;;;;5095298;28;20557;-58
2022/08/29 09:32:29;;;;;;;9.30;7.00;;;19.00;99.90;;;;;;5095986;28;20468;-58
2022/08/29 09:34:56;;;;;;;7.80;6.10;;;19.10;99.60;;;;;;5095117;28;20560;-58
2022/08/29 09:37:27;;;;;;;9.17;5.93;;;19.30;99.30;;;;;;5095384;28;20500;-58
2022/08/29 09:39:59;;;;;;;12.77;6.20;;;19.50;98.80;;;;;;5095736;28;20438;-58
2022/08/29 09:42:32;;;;;;;8.80;6.03;;;19.60;98.20;;;;;;5095502;28;20431;-58
2022/08/29 09:45:07;;;;;;;13.53;6.87;;;19.80;97.60;;;;;;5096160;28;20431;-58
2022/08/29 09:47:34;;;;;;;11.03;6.63;;;20.00;97.00;;;;;;5095240;28;20477;-58
2022/08/29 09:50:11;;;;;;;11.63;7.97;;;20.20;96.60;;;;;;5095763;28;20467;-57
2022/08/29 09:52:41;;;;;;;11.77;8.17;;;20.30;96.10;;;;;;5095843;28;20533;-57
2022/08/29 09:55:22;;;;;;;9.77;7.57;;;20.30;95.80;;;;;;5096216;28;20433;-56
2022/08/29 09:57:52;;;;;;;12.03;7.27;;;20.30;95.70;;;;;;5095957;28;20561;-56
2022/08/29 10:00:26;;;;;;;9.40;5.53;;;20.40;95.40;;;;;;5096386;28;20476;-56
2022/08/29 10:02:56;;;;;;;10.37;7.50;;;20.60;94.80;;;;;;5096764;28;20825;-60
2022/08/29 10:05:34;;;;;;;8.70;7.07;;;20.80;94.60;;;;;;5096822;28;20535;-57
2022/08/29 10:08:04;;;;;;;8.63;6.27;;;21.00;93.90;;;;;;5095140;28;20975;-58
2022/08/29 10:10:35;;;;;;;11.53;6.43;;;21.10;93.80;;;;;;5094879;28;20891;-57
2022/08/29 10:13:09;;;;;;;11.73;7.23;;;21.10;93.00;;;;;;5094771;28;20928;-58
2022/08/29 10:15:43;;;;;;;9.03;5.90;;;21.10;92.90;;;;;;5094710;28;20431;-58
2022/08/29 10:18:23;;;;;;;12.70;6.20;;;21.10;92.70;;;;;;5094552;28;20563;-58
2022/08/29 10:20:59;;;;;;;10.00;5.83;;;21.10;92.50;;;;;;5094843;28;20500;-58
2022/08/29 10:23:37;;;;;;;6.10;5.50;;;21.10;92.50;;;;;;5094378;28;20499;-58
2022/08/29 10:26:18;;;;;;;7.67;6.17;;;21.30;92.20;;;;;;5095067;28;20427;-58
2022/08/29 10:28:54;;;;;;;9.83;6.53;;;21.40;91.80;;;;;;5094624;28;20560;-58
2022/08/29 10:31:33;;;;;;;9.10;5.87;;;21.50;91.30;;;;;;5094934;28;20469;-58
2022/08/29 10:34:16;;;;;;;11.23;5.60;;;21.60;90.90;;;;;;5094646;28;20437;-58
2022/08/29 10:36:51;;;;;;;10.23;5.60;;;21.80;90.40;;;;;;5095296;28;20473;-60
2022/08/29 10:39:35;;;;;;;10.40;5.97;;;21.90;89.20;;;;;;5094231;28;20432;-58
2022/08/29 10:42:08;;;;;;;8.83;5.80;;;21.90;88.10;;;;;;5094327;28;20496;-57
2022/08/29 10:44:45;;;;;;;8.37;5.90;;;21.80;87.50;;;;;;5094321;28;20430;-58
2022/08/29 10:47:32;;;;;;;9.20;6.70;;;21.60;87.70;;;;;;5095475;28;20460;-58
2022/08/29 10:50:17;;;;;;;12.23;7.57;;;21.70;87.80;;;;;;5094419;28;20825;-57
2022/08/29 10:52:52;;;;;;;8.50;6.20;;;21.90;86.70;;;;;;5094049;28;20434;-54
2022/08/29 10:55:38;;;;;;;12.80;7.13;;;22.10;84.90;;;;;;5093748;28;20428;-58
2022/08/29 10:58:09;;;;;;;9.97;5.70;;;22.30;83.50;;;;;;5093656;28;20468;-57
2022/08/29 11:00:43;;;;;;;11.67;6.97;;;22.60;82.20;;;;;;5094267;28;20426;-59
2022/08/29 11:03:22;;;;;;;7.60;6.10;;;22.70;80.90;;;;;;5094389;28;20426;-60
2022/08/29 11:05:56;;;;;;;10.20;6.63;;;22.90;79.80;;;;;;5093782;28;20440;-58
2022/08/29 11:08:28;;;;;;;11.90;7.30;;;22.90;78.30;;;;;;5093852;28;20523;-58
2022/08/29 11:10:55;;;;;;;9.13;6.03;;;23.00;77.60;;;;;;5093705;28;20545;-57
2022/08/29 11:13:27;;;;;;;9.03;6.50;;;23.10;76.40;;;;;;5093264;28;20481;-56
2022/08/29 11:16:02;;;;;;;11.77;5.77;;;23.30;75.40;;;;;;5093383;28;20801;-58
2022/08/29 11:18:37;;;;;;;7.60;5.70;;;23.50;74.30;;;;;;5093187;28;20956;-58
2022/08/29 11:21:15;;;;;;;10.27;5.37;;;23.60;72.90;;;;;;5093532;28;20461;-58
2022/08/29 11:23:45;;;;;;;9.53;6.07;;;23.70;72.30;;;;;;5094028;28;20458;-59
2022/08/29 11:26:20;;;;;;;10.30;5.67;;;23.90;71.40;;;;;;5093640;28;21025;-58
2022/08/29 11:28:56;;;;;;;10.53;6.23;;;24.20;69.70;;;;;;5093462;28;21001;-57
2022/08/29 11:31:37;;;;;;;7.10;5.30;;;24.50;68.30;;;;;;5093549;28;20827;-58
2022/08/29 11:34:21;;;;;;;9.57;5.57;;;24.80;67.10;;;;;;5093695;28;20433;-59
2022/08/29 11:37:04;;;;;;;8.57;5.73;;;25.00;65.60;;;;;;5093437;28;20432;-57
2022/08/29 11:39:56;;;;;;;5.43;4.90;;;25.10;64.90;;;;;;5093814;28;20501;-56
2022/08/29 11:42:28;;;;;;;9.20;4.63;;;24.90;63.70;;;;;;5098484;28;20424;-57
2022/08/29 11:44:59;;;;;;;9.17;5.50;;;24.60;64.30;;;;;;5094380;28;20628;-58
2022/08/29 11:47:39;;;;;;;8.50;5.40;;;24.50;64.80;;;;;;5093051;28;20511;-57
2022/08/29 11:50:22;;;;;;;9.27;4.73;;;24.50;63.90;;;;;;5092822;28;20504;-58
2022/08/29 11:52:53;;;;;;;10.40;5.20;;;24.50;63.80;;;;;;5092600;28;20826;-58
2022/08/29 11:55:33;;;;;;;6.80;4.80;;;24.50;63.10;;;;;;5092930;28;20536;-59
2022/08/29 11:58:04;;;;;;;9.03;6.30;;;24.50;63.20;;;;;;5093273;28;20462;-59
2022/08/29 12:00:58;;;;;;;9.73;4.63;;;24.50;62.70;;;;;;5092646;28;20963;-58
2022/08/29 12:03:51;;;;;;;9.73;4.97;;;24.40;62.60;;;;;;5068178;28;20446;-58
2022/08/29 12:06:42;;;;;;;9.83;4.90;;;24.30;62.60;;;;;;5094757;28;20512;-59
2022/08/29 12:09:37;;;;;;;10.30;5.60;;;24.10;62.90;;;;;;5091907;28;21051;-57
2022/08/29 12:12:13;;;;;;;10.33;4.57;;;24.00;62.70;;;;;;5093110;28;20802;-58
2022/08/29 12:14:42;;;;;;;11.33;5.10;;;24.10;62.50;;;;;;5093212;28;20513;-59
2022/08/29 12:17:31;;;;;;;8.37;5.23;;;24.20;62.30;;;;;;5092394;28;20486;-59
2022/08/29 12:20:15;;;;;;;7.03;4.53;;;24.20;62.30;;;;;;5093221;28;20873;-59
2022/08/29 12:22:58;;;;;;;5.73;4.57;;;24.00;62.50;;;;;;5093131;28;20575;-58
2022/08/29 12:25:48;;;;;;;7.17;3.90;;;23.90;62.90;;;;;;5093425;28;20426;-57
2022/08/29 12:28:37;;;;;;;6.10;4.70;;;23.90;63.00;;;;;;5092544;28;20550;-58
2022/08/29 12:31:31;;;;;;;8.67;4.40;;;24.10;62.80;;;;;;5094517;28;20470;-60
2022/08/29 12:34:16;;;;;;;8.87;3.90;;;24.30;61.90;;;;;;5096906;28;20441;-59
2022/08/29 12:36:58;;;;;;;7.90;4.20;;;24.50;60.90;;;;;;5096818;28;20460;-58
2022/08/29 12:39:45;;;;;;;6.80;4.33;;;24.60;60.40;;;;;;5098205;28;20459;-59
2022/08/29 12:42:28;;;;;;;7.73;4.17;;;24.70;60.20;;;;;;5098633;28;20511;-59
2022/08/29 12:45:00;;;;;;;4.50;3.40;;;24.80;59.90;;;;;;5097582;28;20444;-59
2022/08/29 12:50:18;;;;;;;9.40;4.47;;;24.90;59.60;;;;;;5095886;28;20473;-60
2022/08/29 12:52:59;;;;;;;7.87;4.57;;;24.90;59.30;;;;;;5097531;28;20467;-59
2022/08/29 12:55:32;;;;;;;9.47;4.30;;;24.90;58.70;;;;;;5097332;28;20429;-60
2022/08/29 12:58:00;;;;;;;5.00;4.17;;;24.90;58.40;;;;;;5096913;28;20466;-59
2022/08/29 13:00:31;;;;;;;8.20;4.30;;;25.00;58.30;;;;;;5098798;28;20445;-57
2022/08/29 13:03:04;;;;;;;7.17;4.57;;;25.20;57.90;;;;;;5099494;28;20446;-60
2022/08/29 13:05:35;;;;;;;7.63;4.53;;;25.40;57.50;;;;;;5098942;28;20435;-60
2022/08/29 13:08:08;;;;;;;5.17;4.20;;;25.40;57.20;;;;;;5098880;28;20476;-61
2022/08/29 13:10:38;;;;;;;8.13;4.03;;;25.40;57.30;;;;;;5098193;28;20445;-63
2022/08/29 13:13:08;;;;;;;4.23;3.83;;;25.30;57.30;;;;;;5097323;28;20445;-63
2022/08/29 13:15:36;;;;;;;8.70;4.37;;;25.30;57.50;;;;;;5096038;28;20482;-63
2022/08/29 13:18:03;;;;;;;4.80;4.37;;;25.30;57.50;;;;;;5096082;28;20562;-59
2022/08/29 13:20:46;;;;;;;4.90;2.93;;;25.30;57.30;;;;;;5096055;28;21012;-61